createdAt,value
2019-04-03T00:00:49.199Z,13.00
2019-04-03T00:01:49.133Z,12.00
2019-04-03T00:02:49.139Z,12.70
2019-04-03T00:03:49.152Z,11.90
2019-04-03T00:04:49.218Z,11.50
2019-04-03T00:05:49.169Z,11.70
2019-04-03T00:06:49.176Z,11.50
2019-04-03T00:07:49.188Z,11.80
2019-04-03T00:08:49.195Z,11.70
2019-04-03T00:09:49.204Z,12.20
2019-04-03T00:10:49.230Z,11.80
2019-04-03T00:11:49.231Z,11.90
2019-04-03T00:12:49.327Z,11.80
2019-04-03T00:13:49.249Z,11.40
2019-04-03T00:14:49.259Z,11.20
2019-04-03T00:15:49.266Z,11.80
2019-04-03T00:16:49.273Z,12.50
2019-04-03T00:17:49.282Z,11.30
2019-04-03T00:18:49.297Z,11.40
2019-04-03T00:19:49.304Z,11.60
2019-04-03T00:20:49.319Z,12.70
2019-04-03T00:21:50.557Z,12.90
2019-04-03T00:22:49.897Z,12.50
2019-04-03T00:23:49.343Z,12.50
2019-04-03T00:24:51.989Z,12.30
2019-04-03T00:25:52.089Z,12.50
2019-04-03T00:26:51.878Z,12.30
2019-04-03T00:27:52.003Z,12.50
2019-04-03T00:28:50.713Z,12.70
2019-04-03T00:29:51.827Z,12.40
2019-04-03T00:30:49.409Z,12.30
2019-04-03T00:31:49.419Z,12.50
2019-04-03T00:32:49.429Z,12.30
2019-04-03T00:33:49.439Z,11.70
2019-04-03T00:34:49.572Z,12.80
2019-04-03T00:35:49.454Z,12.00
2019-04-03T00:36:49.488Z,11.60
2019-04-03T00:37:49.479Z,12.60
2019-04-03T00:38:49.484Z,12.80
2019-04-03T00:39:49.501Z,12.70
2019-04-03T00:40:49.505Z,13.50
2019-04-03T00:41:49.514Z,13.60
2019-04-03T00:42:49.523Z,13.20
2019-04-03T00:43:49.532Z,13.40
2019-04-03T00:44:49.546Z,12.90
2019-04-03T00:45:49.553Z,13.10
2019-04-03T00:46:49.563Z,12.90
2019-04-03T00:47:49.570Z,13.20
2019-04-03T00:48:49.698Z,12.30
2019-04-03T00:49:49.588Z,12.10
2019-04-03T00:50:49.721Z,12.50
2019-04-03T00:51:49.617Z,12.70
2019-04-03T00:52:49.733Z,13.10
2019-04-03T00:53:49.629Z,13.40
2019-04-03T00:54:49.738Z,13.70
2019-04-03T00:55:49.645Z,13.30
2019-04-03T00:56:49.658Z,13.00
2019-04-03T00:57:49.665Z,12.50
2019-04-03T00:58:49.673Z,12.80
2019-04-03T00:59:49.689Z,13.10
2019-04-03T01:00:49.696Z,12.30
2019-04-03T01:01:49.716Z,12.90
2019-04-03T01:02:49.717Z,13.30
2019-04-03T01:03:49.720Z,12.70
2019-04-03T01:04:49.738Z,13.50
2019-04-03T01:05:49.739Z,12.80
2019-04-03T01:06:49.749Z,12.00
2019-04-03T01:07:49.759Z,13.40
2019-04-03T01:08:49.773Z,12.50
2019-04-03T01:09:49.777Z,12.40
2019-04-03T01:10:49.791Z,12.80
2019-04-03T01:11:49.927Z,13.30
2019-04-03T01:12:49.806Z,12.20
2019-04-03T01:13:49.818Z,12.30
2019-04-03T01:14:49.828Z,12.20
2019-04-03T01:15:49.837Z,12.40
2019-04-03T01:16:49.843Z,11.20
2019-04-03T01:17:49.879Z,12.20
2019-04-03T01:18:49.862Z,12.80
2019-04-03T01:19:49.876Z,12.60
2019-04-03T01:20:49.884Z,12.10
2019-04-03T01:21:49.897Z,12.50
2019-04-03T01:22:49.903Z,11.40
2019-04-03T01:23:49.950Z,12.50
2019-04-03T01:24:49.917Z,13.30
2019-04-03T01:25:49.931Z,12.60
2019-04-03T01:26:50.099Z,12.60
2019-04-03T01:27:49.948Z,12.70
2019-04-03T01:28:49.958Z,11.20
2019-04-03T01:29:49.970Z,11.60
2019-04-03T01:30:49.979Z,12.30
2019-04-03T01:31:49.982Z,12.40
2019-04-03T01:32:49.990Z,11.90
2019-04-03T01:33:50.004Z,12.10
2019-04-03T01:34:50.010Z,12.30
2019-04-03T01:35:50.019Z,12.60
2019-04-03T01:36:50.030Z,11.30
2019-04-03T01:37:50.194Z,12.00
2019-04-03T01:38:50.357Z,11.90
2019-04-03T01:39:50.759Z,11.90
2019-04-03T01:40:50.591Z,11.00
2019-04-03T01:41:51.483Z,10.50
2019-04-03T01:42:52.158Z,12.20
2019-04-03T01:43:50.134Z,11.20
2019-04-03T01:44:50.112Z,11.40
2019-04-03T01:45:50.112Z,11.00
2019-04-03T01:46:50.120Z,11.00
2019-04-03T01:47:50.132Z,11.20
2019-04-03T01:48:50.260Z,10.50
2019-04-03T01:49:50.151Z,11.00
2019-04-03T01:50:50.158Z,10.50
2019-04-03T01:51:50.167Z,10.30
2019-04-03T01:52:50.180Z,10.70
2019-04-03T01:53:50.182Z,10.30
2019-04-03T01:54:50.216Z,10.60
2019-04-03T01:55:50.202Z,10.80
2019-04-03T01:56:50.213Z,10.20
2019-04-03T01:57:50.223Z,10.50
2019-04-03T01:58:50.231Z,10.10
2019-04-03T01:59:50.242Z,9.90
2019-04-03T02:00:50.262Z,10.10
2019-04-03T02:01:50.260Z,10.60
2019-04-03T02:02:50.267Z,10.20
2019-04-03T02:03:50.345Z,10.50
2019-04-03T02:04:50.284Z,10.20
2019-04-03T02:05:50.375Z,10.00
2019-04-03T02:06:50.303Z,10.20
2019-04-03T02:07:50.315Z,10.30
2019-04-03T02:08:50.324Z,9.80
2019-04-03T02:09:50.390Z,10.00
2019-04-03T02:10:50.342Z,9.90
2019-04-03T02:11:50.354Z,9.40
2019-04-03T02:12:51.213Z,9.80
2019-04-03T02:13:51.285Z,10.10
2019-04-03T02:14:51.560Z,9.30
2019-04-03T02:15:52.229Z,10.40
2019-04-03T02:16:53.000Z,9.90
2019-04-03T02:17:50.409Z,10.80
2019-04-03T02:18:50.415Z,11.70
2019-04-03T02:19:50.423Z,11.60
2019-04-03T02:20:50.429Z,11.90
2019-04-03T02:21:50.527Z,11.90
2019-04-03T02:22:50.453Z,11.60
2019-04-03T02:23:50.459Z,11.90
2019-04-03T02:24:50.468Z,10.90
2019-04-03T02:25:50.478Z,11.30
2019-04-03T02:26:50.488Z,11.70
2019-04-03T02:27:50.498Z,11.70
2019-04-03T02:28:50.502Z,11.60
2019-04-03T02:29:50.510Z,12.00
2019-04-03T02:30:50.526Z,12.10
2019-04-03T02:31:52.696Z,11.30
2019-04-03T02:32:50.545Z,11.90
2019-04-03T02:33:50.562Z,11.70
2019-04-03T02:34:50.709Z,11.70
2019-04-03T02:35:50.571Z,11.50
2019-04-03T02:36:50.579Z,11.30
2019-04-03T02:37:50.914Z,11.50
2019-04-03T02:38:51.508Z,11.40
2019-04-03T02:39:50.614Z,11.30
2019-04-03T02:40:50.617Z,10.90
2019-04-03T02:41:50.620Z,11.30
2019-04-03T02:42:50.639Z,11.40
2019-04-03T02:43:50.658Z,11.10
2019-04-03T02:44:51.720Z,11.00
2019-04-03T02:45:50.662Z,11.60
2019-04-03T02:46:50.666Z,11.60
2019-04-03T02:47:50.931Z,11.50
2019-04-03T02:48:50.684Z,12.10
2019-04-03T02:49:50.692Z,12.50
2019-04-03T02:50:50.707Z,11.80
2019-04-03T02:51:53.282Z,11.40
2019-04-03T02:52:50.718Z,11.20
2019-04-03T02:53:50.732Z,12.00
2019-04-03T02:54:50.738Z,11.90
2019-04-03T02:55:51.034Z,11.50
2019-04-03T02:56:50.760Z,12.90
2019-04-03T02:57:50.783Z,11.60
2019-04-03T02:58:53.557Z,12.00
2019-04-03T02:59:50.779Z,12.40
2019-04-03T03:00:50.790Z,11.50
2019-04-03T03:01:50.801Z,12.20
2019-04-03T03:02:50.809Z,12.10
2019-04-03T03:03:50.819Z,11.20
2019-04-03T03:04:54.044Z,11.90
2019-04-03T03:05:50.925Z,11.50
2019-04-03T03:06:50.845Z,11.80
2019-04-03T03:07:51.053Z,11.00
2019-04-03T03:08:50.904Z,11.60
2019-04-03T03:09:50.872Z,12.10
2019-04-03T03:10:51.779Z,11.20
2019-04-03T03:11:50.886Z,11.80
2019-04-03T03:12:50.896Z,11.20
2019-04-03T03:13:51.144Z,11.10
2019-04-03T03:14:50.927Z,11.10
2019-04-03T03:15:51.000Z,11.30
2019-04-03T03:16:51.241Z,10.90
2019-04-03T03:17:54.455Z,11.10
2019-04-03T03:18:50.951Z,11.80
2019-04-03T03:19:51.177Z,10.90
2019-04-03T03:20:50.965Z,11.30
2019-04-03T03:21:51.189Z,11.50
2019-04-03T03:22:51.653Z,11.10
2019-04-03T03:23:51.225Z,11.80
2019-04-03T03:24:51.011Z,11.60
2019-04-03T03:25:51.142Z,11.60
2019-04-03T03:26:51.027Z,11.50
2019-04-03T03:27:51.024Z,11.30
2019-04-03T03:28:51.033Z,12.00
2019-04-03T03:29:51.191Z,11.90
2019-04-03T03:30:59.549Z,11.10
2019-04-03T03:32:15.592Z,11.60
2019-04-03T03:32:52.012Z,12.70
2019-04-03T03:33:51.093Z,11.90
2019-04-03T03:35:04.895Z,11.50
2019-04-03T03:35:52.024Z,12.50
2019-04-03T03:36:54.656Z,13.00
2019-04-03T03:37:51.111Z,11.50
2019-04-03T03:38:51.132Z,11.60
2019-04-03T03:39:51.152Z,12.10
2019-04-03T03:40:51.292Z,12.40
2019-04-03T03:41:51.194Z,12.40
2019-04-03T03:42:51.372Z,13.00
2019-04-03T03:43:51.162Z,12.50
2019-04-03T03:44:51.171Z,12.40
2019-04-03T03:45:52.527Z,11.50
2019-04-03T03:46:51.191Z,11.50
2019-04-03T03:47:51.195Z,12.00
2019-04-03T03:48:51.207Z,11.80
2019-04-03T03:49:51.245Z,12.50
2019-04-03T03:50:51.238Z,12.20
2019-04-03T03:51:51.230Z,12.60
2019-04-03T03:52:51.240Z,12.60
2019-04-03T03:53:51.245Z,13.00
2019-04-03T03:54:52.280Z,12.50
2019-04-03T03:55:51.262Z,12.20
2019-04-03T03:56:51.270Z,13.00
2019-04-03T03:57:51.285Z,13.90
2019-04-03T03:58:51.297Z,14.00
2019-04-03T03:59:52.221Z,14.00
2019-04-03T04:00:52.945Z,13.70
2019-04-03T04:01:51.315Z,12.70
2019-04-03T04:02:51.320Z,13.10
2019-04-03T04:03:51.329Z,13.20
2019-04-03T04:04:51.340Z,12.10
2019-04-03T04:05:54.678Z,12.30
2019-04-03T04:06:51.624Z,12.70
2019-04-03T04:07:51.371Z,12.60
2019-04-03T04:08:51.369Z,11.60
2019-04-03T04:09:52.186Z,12.70
2019-04-03T04:10:51.387Z,12.10
2019-04-03T04:11:51.397Z,11.30
2019-04-03T04:12:51.417Z,12.00
2019-04-03T04:13:51.417Z,12.10
2019-04-03T04:14:54.717Z,11.70
2019-04-03T04:15:51.685Z,12.10
2019-04-03T04:16:51.447Z,12.30
2019-04-03T04:17:51.921Z,12.90
2019-04-03T04:18:55.497Z,12.40
2019-04-03T04:19:51.497Z,13.00
2019-04-03T04:20:51.478Z,12.80
2019-04-03T04:21:51.485Z,13.40
2019-04-03T04:22:51.685Z,14.50
2019-04-03T04:23:55.155Z,13.80
2019-04-03T04:24:51.507Z,13.30
2019-04-03T04:25:51.517Z,13.80
2019-04-03T04:26:51.525Z,13.30
2019-04-03T04:27:51.533Z,14.00
2019-04-03T04:28:51.540Z,13.70
2019-04-03T04:29:51.550Z,14.00
2019-04-03T04:30:51.648Z,13.40
2019-04-03T04:31:51.567Z,13.70
2019-04-03T04:32:51.583Z,13.90
2019-04-03T04:33:51.798Z,12.50
2019-04-03T04:34:51.597Z,14.40
2019-04-03T04:35:52.455Z,13.60
2019-04-03T04:36:53.078Z,13.20
2019-04-03T04:37:51.631Z,13.30
2019-04-03T04:38:51.799Z,13.80
2019-04-03T04:39:51.635Z,12.90
2019-04-03T04:40:51.641Z,14.00
2019-04-03T04:41:51.652Z,13.70
2019-04-03T04:42:51.658Z,13.90
2019-04-03T04:43:51.962Z,13.60
2019-04-03T04:44:51.677Z,12.80
2019-04-03T04:45:51.912Z,13.00
2019-04-03T04:46:51.696Z,12.10
2019-04-03T04:47:51.699Z,13.00
2019-04-03T04:48:52.404Z,12.70
2019-04-03T04:49:53.684Z,12.70
2019-04-03T04:50:54.193Z,12.90
2019-04-03T04:51:51.740Z,13.20
2019-04-03T04:52:51.748Z,13.60
2019-04-03T04:53:51.759Z,13.10
2019-04-03T04:54:51.762Z,14.10
2019-04-03T04:55:51.768Z,12.30
2019-04-03T04:56:51.813Z,14.00
2019-04-03T04:57:51.788Z,13.20
2019-04-03T04:58:51.793Z,11.80
2019-04-03T04:59:51.808Z,13.40
2019-04-03T05:00:53.499Z,13.20
2019-04-03T05:01:51.820Z,12.30
2019-04-03T05:02:51.832Z,13.00
2019-04-03T05:03:53.919Z,12.80
2019-04-03T05:04:51.850Z,12.70
2019-04-03T05:05:51.855Z,14.10
2019-04-03T05:06:51.863Z,13.00
2019-04-03T05:07:51.872Z,13.70
2019-04-03T05:08:51.879Z,13.70
2019-04-03T05:09:51.889Z,13.40
2019-04-03T05:10:51.909Z,12.90
2019-04-03T05:11:51.907Z,13.30
2019-04-03T05:12:51.919Z,13.10
2019-04-03T05:13:51.927Z,13.30
2019-04-03T05:14:51.931Z,13.10
2019-04-03T05:15:54.174Z,12.50
2019-04-03T05:16:51.948Z,12.40
2019-04-03T05:17:51.956Z,12.20
2019-04-03T05:18:51.965Z,11.60
2019-04-03T05:19:51.973Z,12.50
2019-04-03T05:20:51.981Z,12.60
2019-04-03T05:21:53.067Z,12.80
2019-04-03T05:22:54.537Z,12.40
2019-04-03T05:23:52.010Z,12.40
2019-04-03T05:24:52.017Z,13.30
2019-04-03T05:25:52.242Z,12.50
2019-04-03T05:26:52.032Z,12.30
2019-04-03T05:27:52.043Z,13.30
2019-04-03T05:28:55.868Z,12.60
2019-04-03T05:29:52.061Z,13.10
2019-04-03T05:30:52.071Z,13.10
2019-04-03T05:31:52.080Z,12.80
2019-04-03T05:32:52.088Z,13.30
2019-04-03T05:33:52.109Z,13.10
2019-04-03T05:34:52.109Z,13.40
2019-04-03T05:35:52.114Z,13.50
2019-04-03T05:36:52.116Z,13.00
2019-04-03T05:37:52.214Z,13.00
2019-04-03T05:38:53.772Z,12.30
2019-04-03T05:39:54.715Z,11.90
2019-04-03T05:40:52.153Z,11.80
2019-04-03T05:41:52.482Z,12.30
2019-04-03T05:42:52.172Z,12.60
2019-04-03T05:43:52.178Z,12.20
2019-04-03T05:44:52.202Z,11.80
2019-04-03T05:45:52.193Z,12.20
2019-04-03T05:46:52.200Z,12.20
2019-04-03T05:47:52.225Z,12.30
2019-04-03T05:48:52.315Z,12.50
2019-04-03T05:49:55.482Z,12.60
2019-04-03T05:50:52.240Z,12.00
2019-04-03T05:51:52.362Z,12.20
2019-04-03T05:52:52.256Z,11.90
2019-04-03T05:53:53.785Z,12.60
2019-04-03T05:54:52.272Z,12.30
2019-04-03T05:55:52.280Z,12.00
2019-04-03T05:56:52.285Z,12.80
2019-04-03T05:57:52.295Z,13.30
2019-04-03T05:58:56.714Z,13.30
2019-04-03T05:59:59.833Z,12.10
2019-04-03T06:01:03.450Z,11.90
2019-04-03T06:01:52.355Z,11.50
2019-04-03T06:02:53.131Z,11.60
2019-04-03T06:03:52.347Z,10.00
2019-04-03T06:04:52.388Z,9.20
2019-04-03T06:05:52.374Z,9.30
2019-04-03T06:06:52.385Z,9.20
2019-04-03T06:07:52.633Z,9.90
2019-04-03T06:08:52.400Z,10.30
2019-04-03T06:09:54.201Z,10.30
2019-04-03T06:10:52.404Z,10.40
2019-04-03T06:11:52.833Z,10.40
2019-04-03T06:12:52.623Z,10.10
2019-04-03T06:13:52.430Z,10.80
2019-04-03T06:14:52.439Z,11.20
2019-04-03T06:15:53.235Z,11.60
2019-04-03T06:16:55.466Z,11.70
2019-04-03T06:17:54.666Z,12.60
2019-04-03T06:18:52.474Z,12.80
2019-04-03T06:19:52.484Z,12.80
2019-04-03T06:20:52.502Z,12.30
2019-04-03T06:21:52.494Z,12.50
2019-04-03T06:22:52.568Z,13.10
2019-04-03T06:23:53.046Z,12.50
2019-04-03T06:24:53.972Z,12.40
2019-04-03T06:25:52.532Z,11.90
2019-04-03T06:26:52.677Z,12.70
2019-04-03T06:27:52.650Z,13.30
2019-04-03T06:28:52.556Z,12.40
2019-04-03T06:29:55.294Z,11.60
2019-04-03T06:30:54.187Z,12.10
2019-04-03T06:31:52.579Z,11.70
2019-04-03T06:32:54.750Z,11.40
2019-04-03T06:33:52.600Z,11.20
2019-04-03T06:34:52.606Z,12.60
2019-04-03T06:35:52.614Z,12.00
2019-04-03T06:36:52.622Z,11.90
2019-04-03T06:37:53.231Z,12.00
2019-04-03T06:38:52.642Z,11.90
2019-04-03T06:39:52.647Z,11.60
2019-04-03T06:40:52.929Z,11.30
2019-04-03T06:41:52.666Z,11.70
2019-04-03T06:42:52.678Z,11.60
2019-04-03T06:43:54.276Z,11.80
2019-04-03T06:44:53.883Z,11.60
2019-04-03T06:45:52.703Z,11.70
2019-04-03T06:46:54.787Z,11.70
2019-04-03T06:47:52.730Z,12.00
2019-04-03T06:48:55.032Z,11.30
2019-04-03T06:49:52.741Z,12.50
2019-04-03T06:50:52.746Z,11.30
2019-04-03T06:51:52.754Z,12.50
2019-04-03T06:52:53.134Z,11.90
2019-04-03T06:53:52.768Z,12.40
2019-04-03T06:54:52.927Z,11.70
2019-04-03T06:55:52.791Z,11.50
2019-04-03T06:56:53.132Z,11.80
2019-04-03T06:57:52.847Z,11.70
2019-04-03T06:58:52.813Z,11.80
2019-04-03T06:59:52.820Z,10.10
2019-04-03T07:00:54.758Z,10.80
2019-04-03T07:01:53.582Z,10.40
2019-04-03T07:02:53.109Z,10.10
2019-04-03T07:03:52.853Z,10.50
2019-04-03T07:04:52.862Z,10.90
2019-04-03T07:05:52.869Z,11.10
2019-04-03T07:06:55.357Z,11.90
2019-04-03T07:07:53.014Z,11.40
2019-04-03T07:08:52.894Z,10.90
2019-04-03T07:09:52.900Z,12.10
2019-04-03T07:10:55.750Z,11.70
2019-04-03T07:11:52.920Z,11.90
2019-04-03T07:12:52.929Z,12.30
2019-04-03T07:13:53.901Z,12.10
2019-04-03T07:14:52.941Z,12.00
2019-04-03T07:15:52.957Z,11.90
2019-04-03T07:16:52.961Z,11.20
2019-04-03T07:17:52.969Z,12.40
2019-04-03T07:18:52.977Z,11.80
2019-04-03T07:19:53.121Z,12.00
2019-04-03T07:20:52.996Z,12.00
2019-04-03T07:21:55.442Z,11.10
2019-04-03T07:22:53.065Z,11.90
2019-04-03T07:23:53.016Z,11.10
2019-04-03T07:24:53.038Z,11.80
2019-04-03T07:25:53.251Z,12.30
2019-04-03T07:26:53.043Z,11.90
2019-04-03T07:27:53.046Z,11.30
2019-04-03T07:28:53.065Z,11.90
2019-04-03T07:29:53.064Z,11.60
2019-04-03T07:30:53.943Z,11.00
2019-04-03T07:31:55.157Z,10.80
2019-04-03T07:32:53.085Z,11.50
2019-04-03T07:33:53.096Z,11.60
2019-04-03T07:34:53.359Z,11.50
2019-04-03T07:35:53.109Z,11.30
2019-04-03T07:36:53.124Z,11.40
2019-04-03T07:37:53.130Z,11.50
2019-04-03T07:38:53.355Z,11.80
2019-04-03T07:39:53.146Z,11.10
2019-04-03T07:40:53.162Z,10.10
2019-04-03T07:41:54.408Z,10.50
2019-04-03T07:42:55.661Z,11.00
2019-04-03T07:43:53.174Z,10.60
2019-04-03T07:44:53.189Z,11.10
2019-04-03T07:45:53.198Z,11.10
2019-04-03T07:46:54.956Z,10.70
2019-04-03T07:47:53.470Z,10.40
2019-04-03T07:48:53.222Z,10.70
2019-04-03T07:49:53.226Z,9.80
2019-04-03T07:50:53.233Z,9.70
2019-04-03T07:51:53.251Z,10.20
2019-04-03T07:52:53.252Z,10.30
2019-04-03T07:53:53.259Z,10.20
2019-04-03T07:54:56.440Z,10.00
2019-04-03T07:55:55.020Z,9.40
2019-04-03T07:56:54.770Z,8.70
2019-04-03T07:57:53.291Z,8.90
2019-04-03T07:58:53.649Z,9.50
2019-04-03T07:59:53.311Z,8.90
2019-04-03T08:00:53.315Z,9.10
2019-04-03T08:01:53.327Z,8.70
2019-04-03T08:02:53.519Z,8.90
2019-04-03T08:03:53.460Z,9.20
2019-04-03T08:04:55.728Z,9.70
2019-04-03T08:05:55.902Z,10.30
2019-04-03T08:06:53.514Z,10.40
2019-04-03T08:07:53.378Z,10.60
2019-04-03T08:09:06.495Z,10.40
2019-04-03T08:09:53.395Z,10.10
2019-04-03T08:10:53.402Z,10.20
2019-04-03T08:11:53.408Z,11.10
2019-04-03T08:12:53.422Z,10.20
2019-04-03T08:13:53.426Z,10.30
2019-04-03T08:14:53.435Z,10.00
2019-04-03T08:15:53.450Z,10.30
2019-04-03T08:16:56.169Z,10.50
2019-04-03T08:17:54.056Z,9.80
2019-04-03T08:18:53.762Z,9.30
2019-04-03T08:19:54.666Z,9.20
2019-04-03T08:20:53.492Z,9.00
2019-04-03T08:21:53.502Z,10.40
2019-04-03T08:22:53.506Z,9.70
2019-04-03T08:23:53.516Z,9.70
2019-04-03T08:24:53.888Z,10.50
2019-04-03T08:25:54.702Z,10.40
2019-04-03T08:26:53.607Z,9.40
2019-04-03T08:27:55.374Z,9.20
2019-04-03T08:28:53.868Z,9.60
2019-04-03T08:29:53.564Z,9.00
2019-04-03T08:30:53.835Z,8.60
2019-04-03T08:31:53.677Z,9.00
2019-04-03T08:32:53.790Z,9.50
2019-04-03T08:33:53.604Z,9.20
2019-04-03T08:34:53.613Z,9.30
2019-04-03T08:35:53.615Z,9.40
2019-04-03T08:36:53.630Z,8.50
2019-04-03T08:37:53.635Z,8.70
2019-04-03T08:38:53.649Z,9.90
2019-04-03T08:39:53.660Z,8.90
2019-04-03T08:40:53.766Z,9.80
2019-04-03T08:41:55.861Z,9.70
2019-04-03T08:42:53.682Z,9.50
2019-04-03T08:43:53.871Z,10.10
2019-04-03T08:44:53.696Z,9.20
2019-04-03T08:45:53.940Z,9.40
2019-04-03T08:46:53.725Z,9.50
2019-04-03T08:47:53.779Z,9.00
2019-04-03T08:48:55.086Z,9.00
2019-04-03T08:49:56.439Z,9.80
2019-04-03T08:50:53.758Z,9.50
2019-04-03T08:51:53.761Z,9.40
2019-04-03T08:52:53.770Z,8.80
2019-04-03T08:53:54.841Z,9.30
2019-04-03T08:54:53.788Z,8.80
2019-04-03T08:55:56.406Z,8.60
2019-04-03T08:56:53.808Z,8.60
2019-04-03T08:57:54.215Z,8.60
2019-04-03T08:58:56.520Z,8.20
2019-04-03T08:59:53.839Z,8.50
2019-04-03T09:00:53.839Z,8.60
2019-04-03T09:01:55.754Z,7.20
2019-04-03T09:02:53.862Z,8.30
2019-04-03T09:03:53.872Z,7.70
2019-04-03T09:04:54.359Z,8.00
2019-04-03T09:05:55.617Z,7.80
2019-04-03T09:06:54.650Z,8.00
2019-04-03T09:07:56.106Z,8.00
2019-04-03T09:08:53.916Z,8.20
2019-04-03T09:09:54.168Z,8.20
2019-04-03T09:10:53.950Z,8.50
2019-04-03T09:11:53.946Z,7.90
2019-04-03T09:12:53.955Z,8.20
2019-04-03T09:13:54.814Z,7.60
2019-04-03T09:14:54.963Z,8.40
2019-04-03T09:15:53.985Z,8.50
2019-04-03T09:16:54.039Z,7.90
2019-04-03T09:17:54.015Z,8.40
2019-04-03T09:18:54.010Z,7.70
2019-04-03T09:19:56.299Z,8.10
2019-04-03T09:20:54.036Z,7.40
2019-04-03T09:21:54.221Z,7.30
2019-04-03T09:22:54.499Z,7.40
2019-04-03T09:23:56.720Z,6.40
2019-04-03T09:24:54.291Z,6.80
2019-04-03T09:25:54.085Z,6.10
2019-04-03T09:26:54.264Z,6.80
2019-04-03T09:27:54.105Z,6.40
2019-04-03T09:28:54.112Z,6.40
2019-04-03T09:29:54.120Z,6.20
2019-04-03T09:30:54.193Z,6.30
2019-04-03T09:31:55.937Z,6.30
2019-04-03T09:32:54.468Z,6.20
2019-04-03T09:33:56.271Z,5.90
2019-04-03T09:34:54.179Z,5.80
2019-04-03T09:35:54.302Z,5.10
2019-04-03T09:36:54.243Z,5.50
2019-04-03T09:37:54.329Z,5.40
2019-04-03T09:38:54.218Z,5.20
2019-04-03T09:39:54.226Z,4.40
2019-04-03T09:40:54.233Z,4.10
2019-04-03T09:41:54.258Z,3.40
2019-04-03T09:42:54.257Z,3.60
2019-04-03T09:43:54.734Z,3.80
2019-04-03T09:44:56.258Z,4.30
2019-04-03T09:45:54.289Z,4.10
2019-04-03T09:46:54.293Z,3.90
2019-04-03T09:47:54.447Z,4.30
2019-04-03T09:48:54.317Z,4.20
2019-04-03T09:49:54.327Z,4.60
2019-04-03T09:50:54.412Z,4.10
2019-04-03T09:51:54.576Z,4.30
2019-04-03T09:52:55.337Z,4.00
2019-04-03T09:53:56.976Z,4.40
2019-04-03T09:54:54.377Z,4.70
2019-04-03T09:55:54.655Z,3.80
2019-04-03T09:57:03.016Z,3.40
2019-04-03T09:57:54.406Z,3.90
2019-04-03T09:58:56.193Z,3.40
2019-04-03T09:59:54.767Z,4.20
2019-04-03T10:00:54.440Z,3.30
2019-04-03T10:01:54.449Z,3.70
2019-04-03T10:02:54.473Z,4.30
2019-04-03T10:03:55.748Z,3.70
2019-04-03T10:04:57.303Z,3.70
2019-04-03T10:05:54.493Z,3.60
2019-04-03T10:06:54.507Z,3.00
2019-04-03T10:07:54.518Z,3.60
2019-04-03T10:08:54.670Z,3.00
2019-04-03T10:09:54.894Z,3.30
2019-04-03T10:10:54.544Z,3.10
2019-04-03T10:11:54.553Z,3.20
2019-04-03T10:12:54.720Z,2.70
2019-04-03T10:13:54.937Z,3.10
2019-04-03T10:14:54.588Z,2.80
2019-04-03T10:15:54.950Z,3.40
2019-04-03T10:16:54.606Z,3.40
2019-04-03T10:17:54.626Z,3.00
2019-04-03T10:18:54.802Z,3.10
2019-04-03T10:19:54.641Z,3.20
2019-04-03T10:20:54.654Z,3.10
2019-04-03T10:21:54.941Z,3.20
2019-04-03T10:22:56.255Z,3.00
2019-04-03T10:23:54.686Z,2.60
2019-04-03T10:24:54.698Z,2.90
2019-04-03T10:25:54.707Z,2.60
2019-04-03T10:26:54.883Z,2.80
2019-04-03T10:27:54.730Z,3.30
2019-04-03T10:28:54.869Z,2.40
2019-04-03T10:29:56.332Z,2.30
2019-04-03T10:30:54.762Z,2.50
2019-04-03T10:31:55.791Z,2.40
2019-04-03T10:32:54.816Z,2.00
2019-04-03T10:33:54.799Z,1.70
2019-04-03T10:34:57.147Z,1.70
2019-04-03T10:35:54.854Z,2.00
2019-04-03T10:36:54.832Z,3.10
2019-04-03T10:37:55.120Z,2.20
2019-04-03T10:38:54.852Z,2.30
2019-04-03T10:39:55.016Z,2.40
2019-04-03T10:40:56.220Z,2.50
2019-04-03T10:41:55.067Z,2.70
2019-04-03T10:42:55.283Z,2.60
2019-04-03T10:43:54.914Z,2.50
2019-04-03T10:44:54.923Z,2.00
2019-04-03T10:45:54.941Z,1.60
2019-04-03T10:46:54.949Z,2.20
2019-04-03T10:47:56.328Z,2.10
2019-04-03T10:48:55.010Z,1.90
2019-04-03T10:49:55.339Z,2.20
2019-04-03T10:50:55.163Z,2.10
2019-04-03T10:51:55.158Z,2.30
2019-04-03T10:52:55.371Z,2.20
2019-04-03T10:53:55.046Z,1.90
2019-04-03T10:54:56.841Z,1.70
2019-04-03T10:55:55.057Z,1.70
2019-04-03T10:56:55.348Z,1.60
2019-04-03T10:57:55.210Z,1.80
2019-04-03T10:58:55.215Z,1.50
2019-04-03T10:59:55.610Z,1.90
2019-04-03T11:00:55.123Z,1.50
2019-04-03T11:01:55.175Z,1.60
2019-04-03T11:02:55.144Z,1.60
2019-04-03T11:03:55.221Z,1.70
2019-04-03T11:04:55.481Z,1.70
2019-04-03T11:05:55.181Z,1.40
2019-04-03T11:06:55.199Z,1.60
2019-04-03T11:07:55.210Z,1.30
2019-04-03T11:08:55.370Z,1.40
2019-04-03T11:09:55.292Z,1.70
2019-04-03T11:10:55.929Z,1.80
2019-04-03T11:11:55.258Z,1.90
2019-04-03T11:12:55.690Z,2.00
2019-04-03T11:13:55.535Z,2.60
2019-04-03T11:14:55.290Z,2.30
2019-04-03T11:15:55.301Z,2.00
2019-04-03T11:16:55.314Z,1.40
2019-04-03T11:17:55.330Z,2.00
2019-04-03T11:18:59.805Z,2.20
2019-04-03T11:19:55.350Z,1.90
2019-04-03T11:20:55.711Z,1.80
2019-04-03T11:21:56.458Z,1.90
2019-04-03T11:23:05.373Z,1.80
2019-04-03T11:23:55.537Z,1.90
2019-04-03T11:24:55.411Z,1.70
2019-04-03T11:25:55.776Z,1.80
2019-04-03T11:26:55.436Z,1.70
2019-04-03T11:27:55.448Z,1.60
2019-04-03T11:28:55.461Z,1.70
2019-04-03T11:29:55.480Z,1.70
2019-04-03T11:31:00.074Z,1.80
2019-04-03T11:31:55.496Z,1.90
2019-04-03T11:32:55.841Z,2.00
2019-04-03T11:33:55.533Z,1.70
2019-04-03T11:34:55.535Z,1.40
2019-04-03T11:35:55.545Z,1.80
2019-04-03T11:36:55.562Z,1.60
2019-04-03T11:37:55.584Z,1.60
2019-04-03T11:39:08.892Z,2.00
2019-04-03T11:40:02.369Z,2.00
2019-04-03T11:40:56.010Z,1.60
2019-04-03T11:41:56.334Z,1.60
2019-04-03T11:42:55.636Z,1.50
2019-04-03T11:43:55.642Z,1.70
2019-04-03T11:44:55.682Z,2.00
2019-04-03T11:45:55.908Z,2.00
2019-04-03T11:46:55.909Z,1.90
2019-04-03T11:47:55.692Z,1.80
2019-04-03T11:48:55.713Z,1.80
2019-04-03T11:49:55.717Z,1.50
2019-04-03T11:50:56.605Z,1.80
2019-04-03T11:51:55.737Z,1.40
2019-04-03T11:52:55.754Z,1.70
2019-04-03T11:53:55.762Z,1.60
2019-04-03T11:54:55.780Z,1.40
2019-04-03T11:55:55.789Z,1.50
2019-04-03T11:56:56.651Z,2.10
2019-04-03T11:57:56.060Z,1.60
2019-04-03T11:58:55.821Z,1.20
2019-04-03T11:59:57.117Z,1.10
2019-04-03T12:00:55.841Z,1.30
2019-04-03T12:01:55.857Z,1.50
2019-04-03T12:02:55.869Z,1.60
2019-04-03T12:03:55.882Z,2.10
2019-04-03T12:04:55.891Z,2.00
2019-04-03T12:05:55.907Z,1.80
2019-04-03T12:06:55.916Z,1.90
2019-04-03T12:07:56.961Z,1.90
2019-04-03T12:08:55.934Z,1.60
2019-04-03T12:09:56.169Z,1.90
2019-04-03T12:10:56.244Z,1.80
2019-04-03T12:11:55.972Z,1.70
2019-04-03T12:12:56.061Z,1.30
2019-04-03T12:13:56.188Z,1.40
2019-04-03T12:14:56.007Z,1.90
2019-04-03T12:15:58.168Z,1.60
2019-04-03T12:16:58.344Z,1.10
2019-04-03T12:17:56.039Z,1.50
2019-04-03T12:18:56.154Z,1.20
2019-04-03T12:19:56.061Z,1.50
2019-04-03T12:20:56.074Z,1.30
2019-04-03T12:21:56.079Z,1.70
2019-04-03T12:22:56.091Z,1.50
2019-04-03T12:23:58.021Z,1.30
2019-04-03T12:24:56.113Z,1.60
2019-04-03T12:25:56.121Z,1.40
2019-04-03T12:26:56.467Z,1.80
2019-04-03T12:27:56.148Z,1.70
2019-04-03T12:28:56.155Z,1.50
2019-04-03T12:29:56.204Z,1.50
2019-04-03T12:30:56.178Z,1.50
2019-04-03T12:31:56.189Z,1.80
2019-04-03T12:32:56.206Z,1.30
2019-04-03T12:34:02.706Z,1.60
2019-04-03T12:34:56.394Z,1.60
2019-04-03T12:35:56.470Z,1.50
2019-04-03T12:36:56.240Z,1.50
2019-04-03T12:37:56.255Z,1.80
2019-04-03T12:38:57.186Z,1.50
2019-04-03T12:39:56.344Z,1.60
2019-04-03T12:40:56.289Z,1.60
2019-04-03T12:41:56.295Z,1.60
2019-04-03T12:42:56.446Z,1.20
2019-04-03T12:43:56.320Z,1.40
2019-04-03T12:44:56.333Z,1.30
2019-04-03T12:45:58.828Z,1.10
2019-04-03T12:46:56.357Z,1.40
2019-04-03T12:47:56.677Z,1.50
2019-04-03T12:48:56.536Z,1.90
2019-04-03T12:49:56.609Z,1.70
2019-04-03T12:50:56.915Z,1.40
2019-04-03T12:51:56.765Z,1.20
2019-04-03T12:52:56.423Z,1.20
2019-04-03T12:53:56.436Z,1.40
2019-04-03T12:54:56.497Z,1.20
2019-04-03T12:55:57.875Z,1.30
2019-04-03T12:56:56.471Z,1.10
2019-04-03T12:57:56.484Z,1.30
2019-04-03T12:58:56.498Z,1.40
2019-04-03T12:59:56.708Z,1.30
2019-04-03T13:00:56.902Z,1.50
2019-04-03T13:01:56.530Z,1.50
2019-04-03T13:02:56.681Z,1.20